createdAt,value
2022-11-16T00:00:34.776Z,40.45
2022-11-16T07:37:10.578Z,46.35
2022-11-16T07:42:14.545Z,45.33
2022-11-16T07:47:38.104Z,46.17
2022-11-16T07:52:46.574Z,45.88
2022-11-16T07:57:58.187Z,46.05
2022-11-16T08:03:02.601Z,45.47
2022-11-16T08:08:10.121Z,45.53
2022-11-16T08:13:14.810Z,43.05
2022-11-16T08:18:22.968Z,43.10
2022-11-16T08:23:28.797Z,41.83
2022-11-16T08:28:35.372Z,43.47
2022-11-16T08:33:41.813Z,38.60
2022-11-16T08:38:52.200Z,40.83
2022-11-16T08:43:59.283Z,39.97
2022-11-16T08:49:03.166Z,37.78
2022-11-16T08:54:09.606Z,36.63
2022-11-16T08:59:16.248Z,33.75
2022-11-16T09:04:25.501Z,32.60
2022-11-16T09:09:30.788Z,29.30
2022-11-16T09:14:34.551Z,29.50
2022-11-16T09:19:38.330Z,28.42
2022-11-16T09:24:45.982Z,29.42
2022-11-16T09:29:50.290Z,30.65
2022-11-16T09:35:29.238Z,31.83
2022-11-16T09:40:49.473Z,33.22
2022-11-16T09:46:00.489Z,33.13
2022-11-16T09:51:08.597Z,32.97
2022-11-16T09:56:23.005Z,35.17
2022-11-16T10:01:30.059Z,37.65
2022-11-16T10:06:41.581Z,36.15
2022-11-16T10:11:56.370Z,36.83
2022-11-16T10:17:07.890Z,36.22
2022-11-16T10:22:33.063Z,35.88
2022-11-16T10:27:51.227Z,36.15
2022-11-16T10:33:04.556Z,38.63
2022-11-16T10:38:17.221Z,37.38
2022-11-16T10:43:25.677Z,36.88
2022-11-16T10:48:39.737Z,35.92
2022-11-16T10:53:45.094Z,34.60
2022-11-16T10:58:58.306Z,34.20
2022-11-16T11:04:20.926Z,34.33
2022-11-16T11:09:27.957Z,33.92
2022-11-16T11:14:36.302Z,34.60
2022-11-16T11:19:42.328Z,34.35
2022-11-16T11:24:48.891Z,34.67
2022-11-16T11:29:58.589Z,34.35
2022-11-16T11:35:04.519Z,34.75
2022-11-16T11:40:25.142Z,34.42
2022-11-16T11:45:44.479Z,34.30
2022-11-16T11:50:54.178Z,34.30
2022-11-16T11:56:00.362Z,34.55
2022-11-16T12:01:47.263Z,33.65
2022-11-16T12:07:01.147Z,31.88
2022-11-16T12:12:18.323Z,31.10
2022-11-16T12:17:31.027Z,30.85
2022-11-16T12:22:58.459Z,31.60
2022-11-16T12:28:23.529Z,30.45
2022-11-16T12:33:40.193Z,30.27
2022-11-16T12:38:59.616Z,29.27
2022-11-16T12:44:09.597Z,26.42
2022-11-16T12:49:37.395Z,26.75
2022-11-16T12:55:25.826Z,27.08
2022-11-16T13:00:46.310Z,25.50
2022-11-16T13:05:57.893Z,24.92
2022-11-16T13:11:11.685Z,24.17
2022-11-16T13:16:17.439Z,24.42
2022-11-16T13:21:40.405Z,23.52
2022-11-16T13:26:53.012Z,23.77
2022-11-16T13:32:06.521Z,23.90
2022-11-16T13:37:45.284Z,22.60
2022-11-16T13:43:04.129Z,22.38
2022-11-16T13:48:19.375Z,21.77
2022-11-16T13:54:17.859Z,22.35
2022-11-16T13:58:56.260Z,21.98
2022-11-16T14:04:33.449Z,22.67
2022-11-16T14:09:47.304Z,22.73
2022-11-16T14:15:15.439Z,21.55
2022-11-16T14:20:35.393Z,21.60
2022-11-16T14:25:45.215Z,21.58
2022-11-16T14:31:02.189Z,21.60
2022-11-16T14:36:09.399Z,20.77
2022-11-16T14:41:23.636Z,20.98
2022-11-16T14:46:35.116Z,19.33
2022-11-16T14:51:45.022Z,18.40
2022-11-16T14:56:59.781Z,18.83
2022-11-16T15:02:14.645Z,17.38
2022-11-16T15:07:20.526Z,17.20
2022-11-16T15:12:44.006Z,15.93
2022-11-16T15:18:05.622Z,15.85
2022-11-16T15:23:16.587Z,16.00
2022-11-16T15:28:23.945Z,14.95
2022-11-16T15:33:35.911Z,13.40
2022-11-16T15:38:41.776Z,14.48
2022-11-16T15:44:12.300Z,14.00
2022-11-16T15:49:27.019Z,16.10
2022-11-16T15:54:52.581Z,16.13
2022-11-16T15:59:58.168Z,18.15
2022-11-16T16:05:04.071Z,18.45
2022-11-16T16:10:16.105Z,18.55
2022-11-16T16:15:28.098Z,17.55
2022-11-16T16:20:35.188Z,18.23
2022-11-16T16:25:39.177Z,17.52
2022-11-16T16:30:44.447Z,16.70
2022-11-16T16:35:51.031Z,17.10
2022-11-16T16:41:01.806Z,17.58
2022-11-16T16:46:05.870Z,17.67
2022-11-16T16:51:14.265Z,16.92
2022-11-16T16:56:19.925Z,17.52
2022-11-16T17:01:24.576Z,17.50
2022-11-16T17:06:30.831Z,16.55
2022-11-16T17:11:37.779Z,16.20
2022-11-16T17:16:46.534Z,15.10
2022-11-16T17:22:19.234Z,14.75
2022-11-16T17:27:23.759Z,15.57
2022-11-16T17:32:28.615Z,14.10
2022-11-16T17:37:34.921Z,14.18
2022-11-16T17:42:39.085Z,13.27
2022-11-16T17:47:44.067Z,13.00
2022-11-16T17:52:53.508Z,12.45
2022-11-16T17:58:16.441Z,11.57
2022-11-16T18:03:20.425Z,12.35
2022-11-16T18:08:27.471Z,10.23
2022-11-16T18:13:32.277Z,9.73
2022-11-16T18:24:02.492Z,9.33
2022-11-16T18:29:08.906Z,8.90
2022-11-16T18:34:22.644Z,9.45
2022-11-16T18:39:27.788Z,8.85
2022-11-16T18:49:35.553Z,9.70
2022-11-16T18:54:43.622Z,9.47
2022-11-16T18:59:49.997Z,9.57
2022-11-16T19:04:58.021Z,9.30
2022-11-16T19:10:03.434Z,9.20
2022-11-16T19:15:09.194Z,9.38
2022-11-16T19:20:17.225Z,12.60
2022-11-16T19:25:30.920Z,9.40
2022-11-16T19:30:35.118Z,9.20
2022-11-16T19:35:43.262Z,9.10
2022-11-16T19:40:52.626Z,9.40
2022-11-16T19:45:58.293Z,8.73
2022-11-16T19:51:07.021Z,9.57
2022-11-16T19:56:18.349Z,9.05
2022-11-16T20:01:28.699Z,8.93
2022-11-16T20:06:34.032Z,9.60
2022-11-16T20:16:50.462Z,10.07
2022-11-16T20:21:55.326Z,9.73
2022-11-16T20:27:02.472Z,10.88
2022-11-16T20:32:09.129Z,11.50
2022-11-16T20:37:13.124Z,11.37
2022-11-16T20:42:20.808Z,12.07
2022-11-16T20:47:24.755Z,11.38
2022-11-16T20:52:28.664Z,11.50
2022-11-16T20:57:34.970Z,11.60
2022-11-16T21:02:38.706Z,11.57
2022-11-16T21:07:43.932Z,11.43
2022-11-16T21:13:09.259Z,11.27
2022-11-16T21:18:13.162Z,11.27
2022-11-16T21:23:16.888Z,10.90
2022-11-16T21:28:25.455Z,11.23
2022-11-16T21:33:33.108Z,10.68
2022-11-16T21:38:38.407Z,10.85
2022-11-16T21:43:46.059Z,10.95
2022-11-16T21:48:51.769Z,10.75
2022-11-16T21:53:56.916Z,11.55
2022-11-16T22:04:24.129Z,10.90
2022-11-16T22:09:29.306Z,11.27
2022-11-16T22:14:38.306Z,10.82
2022-11-16T22:19:42.198Z,11.30
2022-11-16T22:24:46.494Z,12.05
2022-11-16T22:29:54.392Z,11.70
2022-11-16T22:34:58.140Z,11.35
